sensor_id;sensor_type;location;lat;lon;timestamp;pressure;altitude;pressure_sealevel;temperature;humidity
10712;BME280;5407;51.234;6.804;2023-10-08T00:02:23;101765.94;;;20.88;64.85
10712;BME280;5407;51.234;6.804;2023-10-08T00:04:52;101767.09;;;20.90;64.84
10712;BME280;5407;51.234;6.804;2023-10-08T00:07:20;101773.78;;;20.89;65.02
10712;BME280;5407;51.234;6.804;2023-10-08T00:09:50;101774.06;;;20.77;65.14
10712;BME280;5407;51.234;6.804;2023-10-08T00:12:18;101778.00;;;20.76;65.17
10712;BME280;5407;51.234;6.804;2023-10-08T00:14:46;101776.97;;;21.02;64.76
10712;BME280;5407;51.234;6.804;2023-10-08T00:17:17;101773.38;;;20.87;65.07
10712;BME280;5407;51.234;6.804;2023-10-08T00:19:44;101780.06;;;20.93;65.22
10712;BME280;5407;51.234;6.804;2023-10-08T00:22:11;101793.00;;;20.93;65.21
10712;BME280;5407;51.234;6.804;2023-10-08T00:24:39;101796.91;;;20.95;64.98
10712;BME280;5407;51.234;6.804;2023-10-08T00:27:08;101796.13;;;20.91;65.24
10712;BME280;5407;51.234;6.804;2023-10-08T00:29:36;101805.41;;;20.76;65.78
10712;BME280;5407;51.234;6.804;2023-10-08T00:32:08;101798.34;;;20.79;65.46
10712;BME280;5407;51.234;6.804;2023-10-08T00:34:42;101785.19;;;20.95;64.99
10712;BME280;5407;51.234;6.804;2023-10-08T00:37:10;101776.88;;;20.84;65.49
10712;BME280;5407;51.234;6.804;2023-10-08T00:39:40;101775.00;;;21.02;64.89
10712;BME280;5407;51.234;6.804;2023-10-08T00:42:07;101781.63;;;20.94;65.10
10712;BME280;5407;51.234;6.804;2023-10-08T00:44:34;101783.16;;;20.88;65.89
10712;BME280;5407;51.234;6.804;2023-10-08T00:47:07;101791.25;;;20.67;66.51
10712;BME280;5407;51.234;6.804;2023-10-08T00:49:37;101801.06;;;20.72;66.50
10712;BME280;5407;51.234;6.804;2023-10-08T00:52:29;101807.75;;;20.74;66.17
10712;BME280;5407;51.234;6.804;2023-10-08T00:55:04;101799.94;;;20.76;66.16
10712;BME280;5407;51.234;6.804;2023-10-08T00:57:47;101802.38;;;20.88;65.66
10712;BME280;5407;51.234;6.804;2023-10-08T01:00:16;101794.44;;;20.76;65.84
10712;BME280;5407;51.234;6.804;2023-10-08T01:02:47;101793.63;;;20.76;66.03
10712;BME280;5407;51.234;6.804;2023-10-08T01:05:20;101795.28;;;20.84;65.63
10712;BME280;5407;51.234;6.804;2023-10-08T01:07:53;101789.31;;;20.75;65.96
10712;BME280;5407;51.234;6.804;2023-10-08T01:10:21;101790.00;;;20.62;66.50
10712;BME280;5407;51.234;6.804;2023-10-08T01:12:50;101780.56;;;20.52;66.67
10712;BME280;5407;51.234;6.804;2023-10-08T01:15:30;101777.75;;;20.42;67.04
10712;BME280;5407;51.234;6.804;2023-10-08T01:18:01;101787.22;;;20.55;66.50
10712;BME280;5407;51.234;6.804;2023-10-08T01:20:31;101786.06;;;20.52;66.72
10712;BME280;5407;51.234;6.804;2023-10-08T01:23:04;101789.63;;;20.60;66.48
10712;BME280;5407;51.234;6.804;2023-10-08T01:25:36;101799.75;;;20.52;66.62
10712;BME280;5407;51.234;6.804;2023-10-08T01:28:05;101814.19;;;20.46;67.11
10712;BME280;5407;51.234;6.804;2023-10-08T01:30:40;101811.34;;;20.32;67.31
10712;BME280;5407;51.234;6.804;2023-10-08T01:33:08;101804.38;;;20.41;66.75
10712;BME280;5407;51.234;6.804;2023-10-08T01:35:39;101805.16;;;20.42;66.79
10712;BME280;5407;51.234;6.804;2023-10-08T01:38:08;101802.06;;;20.47;66.35
10712;BME280;5407;51.234;6.804;2023-10-08T01:40:40;101801.19;;;20.36;66.47
10712;BME280;5407;51.234;6.804;2023-10-08T01:43:07;101809.78;;;20.31;66.59
10712;BME280;5407;51.234;6.804;2023-10-08T01:45:36;101804.31;;;20.31;66.61
10712;BME280;5407;51.234;6.804;2023-10-08T01:48:06;101798.47;;;20.39;66.59
10712;BME280;5407;51.234;6.804;2023-10-08T01:50:35;101809.09;;;20.44;66.25
10712;BME280;5407;51.234;6.804;2023-10-08T01:53:02;101800.91;;;20.48;65.99
10712;BME280;5407;51.234;6.804;2023-10-08T01:55:34;101792.25;;;20.42;66.10
10712;BME280;5407;51.234;6.804;2023-10-08T01:58:13;101782.72;;;20.26;66.47
10712;BME280;5407;51.234;6.804;2023-10-08T02:00:42;101790.97;;;20.29;66.46
10712;BME280;5407;51.234;6.804;2023-10-08T02:03:12;101783.50;;;20.23;66.44
10712;BME280;5407;51.234;6.804;2023-10-08T02:05:41;101797.94;;;20.20;66.58
10712;BME280;5407;51.234;6.804;2023-10-08T02:08:09;101794.16;;;20.35;66.20
10712;BME280;5407;51.234;6.804;2023-10-08T02:10:38;101799.63;;;20.35;66.42
10712;BME280;5407;51.234;6.804;2023-10-08T02:13:07;101807.66;;;20.14;66.71
10712;BME280;5407;51.234;6.804;2023-10-08T02:15:35;101802.59;;;20.16;66.34
10712;BME280;5407;51.234;6.804;2023-10-08T02:18:02;101797.09;;;20.16;66.52
10712;BME280;5407;51.234;6.804;2023-10-08T02:20:30;101794.03;;;20.21;66.28
10712;BME280;5407;51.234;6.804;2023-10-08T02:22:57;101796.22;;;20.05;66.41
10712;BME280;5407;51.234;6.804;2023-10-08T02:25:25;101795.53;;;20.15;66.12
10712;BME280;5407;51.234;6.804;2023-10-08T02:27:54;101790.13;;;20.22;65.78
10712;BME280;5407;51.234;6.804;2023-10-08T02:30:21;101790.81;;;20.12;66.09
10712;BME280;5407;51.234;6.804;2023-10-08T02:32:48;101797.94;;;20.20;65.55
10712;BME280;5407;51.234;6.804;2023-10-08T02:35:15;101790.97;;;20.29;65.42
10712;BME280;5407;51.234;6.804;2023-10-08T02:37:42;101782.38;;;20.31;65.45
10712;BME280;5407;51.234;6.804;2023-10-08T02:40:11;101775.31;;;20.33;65.58
10712;BME280;5407;51.234;6.804;2023-10-08T02:42:45;101764.84;;;19.95;66.48
10712;BME280;5407;51.234;6.804;2023-10-08T02:45:14;101775.69;;;20.25;65.44
10712;BME280;5407;51.234;6.804;2023-10-08T02:47:42;101785.34;;;20.12;65.88
10712;BME280;5407;51.234;6.804;2023-10-08T02:50:11;101797.81;;;20.06;66.39
10712;BME280;5407;51.234;6.804;2023-10-08T02:52:42;101792.44;;;20.16;65.94
10712;BME280;5407;51.234;6.804;2023-10-08T02:55:11;101792.03;;;20.14;65.91
10712;BME280;5407;51.234;6.804;2023-10-08T02:57:50;101802.03;;;20.00;66.52
10712;BME280;5407;51.234;6.804;2023-10-08T03:00:19;101804.03;;;20.03;66.51
10712;BME280;5407;51.234;6.804;2023-10-08T03:02:46;101800.75;;;19.87;66.98
10712;BME280;5407;51.234;6.804;2023-10-08T03:05:13;101810.19;;;19.93;66.49
10712;BME280;5407;51.234;6.804;2023-10-08T03:07:43;101817.22;;;19.94;66.98
10712;BME280;5407;51.234;6.804;2023-10-08T03:10:10;101808.31;;;19.64;67.68
10712;BME280;5407;51.234;6.804;2023-10-08T03:12:44;101822.34;;;19.59;67.98
10712;BME280;5407;51.234;6.804;2023-10-08T03:15:13;101831.13;;;19.75;67.87
10712;BME280;5407;51.234;6.804;2023-10-08T03:17:55;101829.63;;;19.81;67.42
10712;BME280;5407;51.234;6.804;2023-10-08T03:20:23;101827.25;;;19.79;67.38
10712;BME280;5407;51.234;6.804;2023-10-08T03:23:04;101818.59;;;19.74;67.68
10712;BME280;5407;51.234;6.804;2023-10-08T03:25:37;101807.47;;;19.60;68.35
10712;BME280;5407;51.234;6.804;2023-10-08T03:28:07;101796.47;;;19.53;68.45
10712;BME280;5407;51.234;6.804;2023-10-08T03:30:38;101788.81;;;19.69;67.79
10712;BME280;5407;51.234;6.804;2023-10-08T03:33:16;101804.31;;;19.54;67.96
10712;BME280;5407;51.234;6.804;2023-10-08T03:35:48;101831.63;;;19.51;68.48
10712;BME280;5407;51.234;6.804;2023-10-08T03:38:19;101838.47;;;19.67;67.68
10712;BME280;5407;51.234;6.804;2023-10-08T03:40:54;101837.06;;;19.47;67.75
10712;BME280;5407;51.234;6.804;2023-10-08T03:43:29;101832.44;;;19.51;67.53
10712;BME280;5407;51.234;6.804;2023-10-08T03:46:08;101834.84;;;19.60;66.72
10712;BME280;5407;51.234;6.804;2023-10-08T03:48:43;101816.94;;;19.66;66.38
10712;BME280;5407;51.234;6.804;2023-10-08T03:51:11;101819.91;;;19.50;66.67
10712;BME280;5407;51.234;6.804;2023-10-08T03:53:38;101811.97;;;19.42;66.91
10712;BME280;5407;51.234;6.804;2023-10-08T03:56:24;101805.50;;;19.57;66.31
10712;BME280;5407;51.234;6.804;2023-10-08T03:58:51;101818.16;;;19.68;65.74
10712;BME280;5407;51.234;6.804;2023-10-08T04:01:20;101838.69;;;19.52;66.54
10712;BME280;5407;51.234;6.804;2023-10-08T04:03:51;101815.28;;;19.58;66.35
10712;BME280;5407;51.234;6.804;2023-10-08T04:06:26;101815.13;;;19.44;66.44
10712;BME280;5407;51.234;6.804;2023-10-08T04:09:03;101780.66;;;19.39;66.35
10712;BME280;5407;51.234;6.804;2023-10-08T04:11:49;101797.88;;;19.40;66.41
10712;BME280;5407;51.234;6.804;2023-10-08T04:14:18;101799.41;;;19.37;66.48
10712;BME280;5407;51.234;6.804;2023-10-08T04:16:46;101829.91;;;19.39;66.28
10712;BME280;5407;51.234;6.804;2023-10-08T04:19:19;101813.97;;;19.45;66.10
10712;BME280;5407;51.234;6.804;2023-10-08T04:21:46;101816.91;;;19.29;66.20
10712;BME280;5407;51.234;6.804;2023-10-08T04:24:21;101810.81;;;19.43;65.74
10712;BME280;5407;51.234;6.804;2023-10-08T04:26:54;101820.53;;;19.37;65.79
10712;BME280;5407;51.234;6.804;2023-10-08T04:29:23;101842.34;;;19.30;66.12
10712;BME280;5407;51.234;6.804;2023-10-08T04:31:50;101842.41;;;19.37;65.85
10712;BME280;5407;51.234;6.804;2023-10-08T04:34:29;101854.88;;;19.34;65.89
10712;BME280;5407;51.234;6.804;2023-10-08T04:36:58;101851.31;;;19.30;65.92
10712;BME280;5407;51.234;6.804;2023-10-08T04:39:29;101854.44;;;19.29;65.45
10712;BME280;5407;51.234;6.804;2023-10-08T04:41:59;101852.44;;;19.26;65.50
10712;BME280;5407;51.234;6.804;2023-10-08T04:44:32;101837.47;;;19.20;65.57
10712;BME280;5407;51.234;6.804;2023-10-08T04:46:59;101835.78;;;19.12;65.65
10712;BME280;5407;51.234;6.804;2023-10-08T04:49:32;101844.66;;;19.28;65.12
10712;BME280;5407;51.234;6.804;2023-10-08T04:52:01;101848.09;;;19.25;65.17
10712;BME280;5407;51.234;6.804;2023-10-08T04:54:34;101856.44;;;19.32;65.08
10712;BME280;5407;51.234;6.804;2023-10-08T04:57:06;101850.22;;;19.35;65.28
10712;BME280;5407;51.234;6.804;2023-10-08T04:59:41;101828.41;;;19.42;64.45
10712;BME280;5407;51.234;6.804;2023-10-08T05:02:09;101832.84;;;19.24;65.10
10712;BME280;5407;51.234;6.804;2023-10-08T05:05:01;101829.84;;;19.32;64.84
10712;BME280;5407;51.234;6.804;2023-10-08T05:08:00;101842.34;;;19.33;64.97
10712;BME280;5407;51.234;6.804;2023-10-08T05:10:42;101849.38;;;19.31;64.73
10712;BME280;5407;51.234;6.804;2023-10-08T05:13:26;101849.97;;;19.17;65.59
10712;BME280;5407;51.234;6.804;2023-10-08T05:15:58;101866.00;;;19.19;65.33
10712;BME280;5407;51.234;6.804;2023-10-08T05:18:37;101874.09;;;19.12;65.90
10712;BME280;5407;51.234;6.804;2023-10-08T05:21:20;101870.38;;;19.23;65.08
10712;BME280;5407;51.234;6.804;2023-10-08T05:23:55;101887.69;;;19.31;65.06
10712;BME280;5407;51.234;6.804;2023-10-08T05:26:38;101891.47;;;19.23;65.63
10712;BME280;5407;51.234;6.804;2023-10-08T05:29:10;101890.03;;;19.32;64.73
10712;BME280;5407;51.234;6.804;2023-10-08T05:32:05;101890.50;;;19.38;64.59
10712;BME280;5407;51.234;6.804;2023-10-08T05:35:04;101901.91;;;19.43;64.59
10712;BME280;5407;51.234;6.804;2023-10-08T05:37:45;101908.03;;;19.33;64.83
10712;BME280;5407;51.234;6.804;2023-10-08T05:40:19;101923.25;;;19.31;64.89
10712;BME280;5407;51.234;6.804;2023-10-08T05:43:07;101934.47;;;19.22;65.05
10712;BME280;5407;51.234;6.804;2023-10-08T05:45:48;101925.03;;;19.20;65.22
10712;BME280;5407;51.234;6.804;2023-10-08T05:48:38;101922.94;;;19.36;65.04
10712;BME280;5407;51.234;6.804;2023-10-08T05:51:12;101915.38;;;19.55;64.77
10712;BME280;5407;51.234;6.804;2023-10-08T05:53:49;101905.38;;;19.40;65.41
10712;BME280;5407;51.234;6.804;2023-10-08T05:56:22;101889.63;;;19.60;64.61
10712;BME280;5407;51.234;6.804;2023-10-08T05:58:54;101890.50;;;19.38;64.72
10712;BME280;5407;51.234;6.804;2023-10-08T06:01:41;101875.78;;;19.20;65.39
10712;BME280;5407;51.234;6.804;2023-10-08T06:04:07;101883.59;;;19.18;65.48
10712;BME280;5407;51.234;6.804;2023-10-08T06:07:07;101871.28;;;19.31;65.23
10712;BME280;5407;51.234;6.804;2023-10-08T06:09:42;101876.53;;;19.17;65.89
10712;BME280;5407;51.234;6.804;2023-10-08T06:12:17;101878.16;;;19.21;65.60
10712;BME280;5407;51.234;6.804;2023-10-08T06:14:55;101873.59;;;19.29;65.37
10712;BME280;5407;51.234;6.804;2023-10-08T06:17:35;101880.72;;;19.11;65.69
10712;BME280;5407;51.234;6.804;2023-10-08T06:20:22;101897.97;;;19.41;64.67
10712;BME280;5407;51.234;6.804;2023-10-08T06:22:52;101899.47;;;19.35;65.16
10712;BME280;5407;51.234;6.804;2023-10-08T06:25:26;101911.03;;;19.25;65.73
10712;BME280;5407;51.234;6.804;2023-10-08T06:27:55;101891.59;;;19.30;66.01
10712;BME280;5407;51.234;6.804;2023-10-08T06:30:23;101891.47;;;19.23;66.01
10712;BME280;5407;51.234;6.804;2023-10-08T06:32:55;101915.53;;;19.14;66.46
10712;BME280;5407;51.234;6.804;2023-10-08T06:35:22;101932.59;;;19.04;66.72
10712;BME280;5407;51.234;6.804;2023-10-08T06:37:53;101923.22;;;19.05;66.80
10712;BME280;5407;51.234;6.804;2023-10-08T06:40:25;101931.47;;;19.31;65.98
10712;BME280;5407;51.234;6.804;2023-10-08T06:43:09;101924.44;;;19.33;65.71
10712;BME280;5407;51.234;6.804;2023-10-08T06:45:44;101935.97;;;19.20;66.04
10712;BME280;5407;51.234;6.804;2023-10-08T06:48:12;101911.19;;;19.35;65.52
10712;BME280;5407;51.234;6.804;2023-10-08T06:50:44;101924.19;;;19.16;66.07
10712;BME280;5407;51.234;6.804;2023-10-08T06:53:11;101917.25;;;19.22;65.92
10712;BME280;5407;51.234;6.804;2023-10-08T06:55:40;101921.25;;;19.28;65.81
10712;BME280;5407;51.234;6.804;2023-10-08T06:58:09;101902.78;;;19.51;65.10
10712;BME280;5407;51.234;6.804;2023-10-08T07:00:37;101915.88;;;19.35;65.34
10712;BME280;5407;51.234;6.804;2023-10-08T07:03:08;101920.53;;;19.31;65.22
10712;BME280;5407;51.234;6.804;2023-10-08T07:05:37;101924.59;;;19.44;64.87
10712;BME280;5407;51.234;6.804;2023-10-08T07:08:09;101927.34;;;19.18;65.55
10712;BME280;5407;51.234;6.804;2023-10-08T07:10:39;101922.53;;;19.34;65.31
10712;BME280;5407;51.234;6.804;2023-10-08T07:13:09;101934.53;;;19.26;65.57
10712;BME280;5407;51.234;6.804;2023-10-08T07:15:35;101932.34;;;19.13;66.46
10712;BME280;5407;51.234;6.804;2023-10-08T07:18:06;101953.38;;;19.31;65.79
10712;BME280;5407;51.234;6.804;2023-10-08T07:20:39;101946.97;;;19.23;66.17
10712;BME280;5407;51.234;6.804;2023-10-08T07:23:08;101945.69;;;19.43;65.64
10712;BME280;5407;51.234;6.804;2023-10-08T07:25:54;101958.47;;;19.62;64.92
10712;BME280;5407;51.234;6.804;2023-10-08T07:28:37;101965.75;;;19.51;65.38
10712;BME280;5407;51.234;6.804;2023-10-08T07:31:05;101972.19;;;19.36;66.14
10712;BME280;5407;51.234;6.804;2023-10-08T07:33:35;101978.97;;;19.45;65.75
10712;BME280;5407;51.234;6.804;2023-10-08T07:36:02;101984.41;;;19.42;66.05
10712;BME280;5407;51.234;6.804;2023-10-08T07:38:38;101983.66;;;19.45;65.81
10712;BME280;5407;51.234;6.804;2023-10-08T07:41:04;101980.19;;;19.48;65.65
10712;BME280;5407;51.234;6.804;2023-10-08T07:43:32;101983.06;;;19.58;65.44
10712;BME280;5407;51.234;6.804;2023-10-08T07:46:01;101988.03;;;19.49;65.91
10712;BME280;5407;51.234;6.804;2023-10-08T07:48:27;101985.59;;;19.70;65.26
10712;BME280;5407;51.234;6.804;2023-10-08T07:50:56;101980.09;;;19.41;66.34
10712;BME280;5407;51.234;6.804;2023-10-08T07:53:24;101978.75;;;19.57;66.13
10712;BME280;5407;51.234;6.804;2023-10-08T07:56:04;101981.66;;;19.42;66.03
10712;BME280;5407;51.234;6.804;2023-10-08T07:58:32;101985.75;;;19.55;65.86
10712;BME280;5407;51.234;6.804;2023-10-08T08:01:03;101992.72;;;19.49;66.27
10712;BME280;5407;51.234;6.804;2023-10-08T08:03:32;101983.34;;;19.50;66.34
10712;BME280;5407;51.234;6.804;2023-10-08T08:06:00;101993.88;;;19.48;66.22
10712;BME280;5407;51.234;6.804;2023-10-08T08:08:27;101998.38;;;19.63;66.15
10712;BME280;5407;51.234;6.804;2023-10-08T08:10:54;101999.28;;;19.70;65.60
10712;BME280;5407;51.234;6.804;2023-10-08T08:13:26;102004.06;;;19.77;65.43
10712;BME280;5407;51.234;6.804;2023-10-08T08:15:55;101988.59;;;19.62;65.85
10712;BME280;5407;51.234;6.804;2023-10-08T08:18:26;101985.84;;;19.62;65.88
10712;BME280;5407;51.234;6.804;2023-10-08T08:21:01;101998.06;;;19.68;65.76
10712;BME280;5407;51.234;6.804;2023-10-08T08:23:29;102009.31;;;19.63;66.13
10712;BME280;5407;51.234;6.804;2023-10-08T08:25:57;102007.81;;;19.65;66.40
10712;BME280;5407;51.234;6.804;2023-10-08T08:28:38;102008.47;;;19.85;65.71
10712;BME280;5407;51.234;6.804;2023-10-08T08:31:06;102000.16;;;19.78;66.00
10712;BME280;5407;51.234;6.804;2023-10-08T08:33:41;101995.81;;;20.03;65.30
10712;BME280;5407;51.234;6.804;2023-10-08T08:36:23;102016.53;;;19.74;66.42
10712;BME280;5407;51.234;6.804;2023-10-08T08:38:50;102015.44;;;19.79;66.14
10712;BME280;5407;51.234;6.804;2023-10-08T08:41:18;102021.94;;;19.97;66.06
10712;BME280;5407;51.234;6.804;2023-10-08T08:43:50;102011.34;;;19.95;65.97
10712;BME280;5407;51.234;6.804;2023-10-08T08:46:27;102016.53;;;20.00;65.78
10712;BME280;5407;51.234;6.804;2023-10-08T08:48:59;102009.16;;;20.04;65.93
10712;BME280;5407;51.234;6.804;2023-10-08T08:51:28;102015.75;;;20.33;64.54
10712;BME280;5407;51.234;6.804;2023-10-08T08:53:56;102012.97;;;20.29;64.67
10712;BME280;5407;51.234;6.804;2023-10-08T08:56:26;102018.22;;;20.12;65.31
10712;BME280;5407;51.234;6.804;2023-10-08T08:58:53;102007.25;;;20.45;64.74
10712;BME280;5407;51.234;6.804;2023-10-08T09:01:22;102014.56;;;20.01;66.79
10712;BME280;5407;51.234;6.804;2023-10-08T09:03:49;102020.88;;;20.05;66.51
10712;BME280;5407;51.234;6.804;2023-10-08T09:06:17;102014.31;;;20.13;66.20
10712;BME280;5407;51.234;6.804;2023-10-08T09:08:46;102011.50;;;20.06;66.75
10712;BME280;5407;51.234;6.804;2023-10-08T09:11:15;102010.13;;;20.19;66.26
10712;BME280;5407;51.234;6.804;2023-10-08T09:13:43;102016.09;;;20.31;65.63
10712;BME280;5407;51.234;6.804;2023-10-08T09:16:13;102025.75;;;20.18;66.18
10712;BME280;5407;51.234;6.804;2023-10-08T09:18:42;102032.75;;;20.45;65.37
10712;BME280;5407;51.234;6.804;2023-10-08T09:21:14;102037.06;;;20.50;65.27
10712;BME280;5407;51.234;6.804;2023-10-08T09:23:50;102036.19;;;20.39;65.96
10712;BME280;5407;51.234;6.804;2023-10-08T09:26:17;102042.34;;;20.32;66.45
10712;BME280;5407;51.234;6.804;2023-10-08T09:28:46;102050.94;;;20.63;65.49
10712;BME280;5407;51.234;6.804;2023-10-08T09:31:14;102055.50;;;20.53;65.85
10712;BME280;5407;51.234;6.804;2023-10-08T09:33:43;102052.25;;;20.76;65.33
10712;BME280;5407;51.234;6.804;2023-10-08T09:36:10;102054.59;;;20.74;65.50
10712;BME280;5407;51.234;6.804;2023-10-08T09:38:46;102070.56;;;20.66;66.24
10712;BME280;5407;51.234;6.804;2023-10-08T09:41:14;102060.34;;;20.99;65.00
10712;BME280;5407;51.234;6.804;2023-10-08T09:43:42;102059.50;;;21.35;63.27
10712;BME280;5407;51.234;6.804;2023-10-08T09:46:15;102060.63;;;21.34;63.35
10712;BME280;5407;51.234;6.804;2023-10-08T09:48:49;102051.72;;;20.97;64.96
10712;BME280;5407;51.234;6.804;2023-10-08T09:51:16;102070.06;;;21.36;63.58
10712;BME280;5407;51.234;6.804;2023-10-08T09:53:51;102063.56;;;21.08;65.24
10712;BME280;5407;51.234;6.804;2023-10-08T09:56:19;102069.41;;;20.70;66.98
10712;BME280;5407;51.234;6.804;2023-10-08T09:58:47;102069.06;;;20.71;67.21
10712;BME280;5407;51.234;6.804;2023-10-08T10:01:16;102075.25;;;20.65;67.61
10712;BME280;5407;51.234;6.804;2023-10-08T10:03:44;102074.19;;;20.76;67.31
10712;BME280;5407;51.234;6.804;2023-10-08T10:06:12;102061.25;;;20.77;67.31
10712;BME280;5407;51.234;6.804;2023-10-08T10:08:41;102050.16;;;20.63;67.65
10712;BME280;5407;51.234;6.804;2023-10-08T10:11:10;102055.41;;;20.78;67.31
10712;BME280;5407;51.234;6.804;2023-10-08T10:13:42;102064.47;;;21.22;66.15
10712;BME280;5407;51.234;6.804;2023-10-08T10:16:10;102060.09;;;21.61;64.47
10712;BME280;5407;51.234;6.804;2023-10-08T10:18:38;102050.84;;;21.87;63.92
10712;BME280;5407;51.234;6.804;2023-10-08T10:21:26;102053.38;;;22.23;62.26
10712;BME280;5407;51.234;6.804;2023-10-08T10:23:54;102055.69;;;22.14;62.21
10712;BME280;5407;51.234;6.804;2023-10-08T10:26:25;102060.38;;;22.10;62.81
10712;BME280;5407;51.234;6.804;2023-10-08T10:29:19;102053.00;;;21.60;64.59
10712;BME280;5407;51.234;6.804;2023-10-08T10:31:48;102054.72;;;21.82;64.12
10712;BME280;5407;51.234;6.804;2023-10-08T10:34:21;102054.50;;;22.18;62.93
10712;BME280;5407;51.234;6.804;2023-10-08T10:36:50;102051.34;;;22.17;62.55
10712;BME280;5407;51.234;6.804;2023-10-08T10:39:22;102053.94;;;22.81;60.83
10712;BME280;5407;51.234;6.804;2023-10-08T10:41:55;102057.91;;;22.90;60.07
10712;BME280;5407;51.234;6.804;2023-10-08T10:44:27;102066.19;;;23.39;58.11
10712;BME280;5407;51.234;6.804;2023-10-08T10:46:56;102058.31;;;23.52;57.69
10712;BME280;5407;51.234;6.804;2023-10-08T10:49:37;102069.88;;;24.53;54.42
10712;BME280;5407;51.234;6.804;2023-10-08T10:52:14;102057.81;;;24.88;53.76
10712;BME280;5407;51.234;6.804;2023-10-08T10:54:44;102064.97;;;24.78;53.69
10712;BME280;5407;51.234;6.804;2023-10-08T10:57:26;102059.91;;;23.28;57.78
10712;BME280;5407;51.234;6.804;2023-10-08T11:00:02;102055.88;;;22.56;60.71
10712;BME280;5407;51.234;6.804;2023-10-08T11:02:44;102072.38;;;22.59;60.82
10712;BME280;5407;51.234;6.804;2023-10-08T11:05:15;102071.22;;;21.82;64.19
10712;BME280;5407;51.234;6.804;2023-10-08T11:07:46;102061.56;;;21.55;65.54
10712;BME280;5407;51.234;6.804;2023-10-08T11:10:15;102070.03;;;21.33;67.05
10712;BME280;5407;51.234;6.804;2023-10-08T11:12:44;102065.84;;;21.49;66.16
10712;BME280;5407;51.234;6.804;2023-10-08T11:15:12;102063.19;;;21.60;65.75
10712;BME280;5407;51.234;6.804;2023-10-08T11:17:41;102066.44;;;21.76;65.31
10712;BME280;5407;51.234;6.804;2023-10-08T11:20:23;102067.25;;;21.76;65.03
10712;BME280;5407;51.234;6.804;2023-10-08T11:22:50;102055.41;;;21.65;65.80
10712;BME280;5407;51.234;6.804;2023-10-08T11:25:23;102047.44;;;21.50;66.44
10712;BME280;5407;51.234;6.804;2023-10-08T11:27:57;102044.13;;;21.81;65.59
10712;BME280;5407;51.234;6.804;2023-10-08T11:30:27;102049.22;;;21.82;65.27
10712;BME280;5407;51.234;6.804;2023-10-08T11:32:57;102046.91;;;21.88;65.31
10712;BME280;5407;51.234;6.804;2023-10-08T11:35:25;102050.47;;;21.92;65.10
10712;BME280;5407;51.234;6.804;2023-10-08T11:37:58;102057.28;;;22.22;64.04
10712;BME280;5407;51.234;6.804;2023-10-08T11:40:27;102060.47;;;22.27;64.12
10712;BME280;5407;51.234;6.804;2023-10-08T11:42:56;102051.19;;;22.74;62.30
10712;BME280;5407;51.234;6.804;2023-10-08T11:45:24;102046.44;;;22.67;62.49
10712;BME280;5407;51.234;6.804;2023-10-08T11:47:52;102045.66;;;22.67;63.01
10712;BME280;5407;51.234;6.804;2023-10-08T11:50:23;102043.75;;;23.09;61.78
10712;BME280;5407;51.234;6.804;2023-10-08T11:52:58;102041.00;;;23.55;59.64
10712;BME280;5407;51.234;6.804;2023-10-08T11:55:29;102044.50;;;23.66;59.19
10712;BME280;5407;51.234;6.804;2023-10-08T11:58:01;102041.78;;;23.38;59.76
10712;BME280;5407;51.234;6.804;2023-10-08T12:00:36;102039.44;;;22.98;61.14
10712;BME280;5407;51.234;6.804;2023-10-08T12:03:10;102028.69;;;22.44;63.47
10712;BME280;5407;51.234;6.804;2023-10-08T12:05:37;102031.75;;;22.18;64.53
10712;BME280;5407;51.234;6.804;2023-10-08T12:08:13;102032.03;;;21.99;65.70
10712;BME280;5407;51.234;6.804;2023-10-08T12:10:42;102025.06;;;22.12;65.66
10712;BME280;5407;51.234;6.804;2023-10-08T12:13:13;102020.31;;;22.09;66.14
10712;BME280;5407;51.234;6.804;2023-10-08T12:15:41;102028.19;;;22.14;65.60
10712;BME280;5407;51.234;6.804;2023-10-08T12:18:10;102032.91;;;21.49;68.05
10712;BME280;5407;51.234;6.804;2023-10-08T12:20:41;102024.00;;;21.63;68.00
10712;BME280;5407;51.234;6.804;2023-10-08T12:23:11;102021.78;;;21.86;66.83
10712;BME280;5407;51.234;6.804;2023-10-08T12:25:45;102013.09;;;21.73;67.88
10712;BME280;5407;51.234;6.804;2023-10-08T12:28:18;102026.34;;;21.61;68.33
10712;BME280;5407;51.234;6.804;2023-10-08T12:30:45;102022.78;;;21.60;68.78
10712;BME280;5407;51.234;6.804;2023-10-08T12:33:15;102025.47;;;21.53;69.15
10712;BME280;5407;51.234;6.804;2023-10-08T12:35:43;102016.03;;;21.47;69.58
10712;BME280;5407;51.234;6.804;2023-10-08T12:38:11;102002.81;;;21.63;68.83
10712;BME280;5407;51.234;6.804;2023-10-08T12:40:38;102003.66;;;21.74;68.59
10712;BME280;5407;51.234;6.804;2023-10-08T12:43:20;101989.53;;;21.72;68.13
10712;BME280;5407;51.234;6.804;2023-10-08T12:45:48;101987.63;;;21.22;70.05
10712;BME280;5407;51.234;6.804;2023-10-08T12:48:21;102002.47;;;21.14;71.17
10712;BME280;5407;51.234;6.804;2023-10-08T12:50:49;101970.53;;;21.53;69.79
10712;BME280;5407;51.234;6.804;2023-10-08T12:53:22;101976.44;;;21.55;69.49
10712;BME280;5407;51.234;6.804;2023-10-08T12:55:53;101976.78;;;21.43;70.39
10712;BME280;5407;51.234;6.804;2023-10-08T12:58:24;101967.59;;;21.83;69.04
10712;BME280;5407;51.234;6.804;2023-10-08T13:00:52;101984.97;;;22.04;68.07
10712;BME280;5407;51.234;6.804;2023-10-08T13:03:26;101975.88;;;21.90;68.56
10712;BME280;5407;51.234;6.804;2023-10-08T13:05:57;101974.69;;;21.87;68.12
10712;BME280;5407;51.234;6.804;2023-10-08T13:08:29;101973.78;;;21.66;68.51
10712;BME280;5407;51.234;6.804;2023-10-08T13:10:57;101973.34;;;21.60;69.30
10712;BME280;5407;51.234;6.804;2023-10-08T13:13:28;101972.13;;;21.51;70.07
10712;BME280;5407;51.234;6.804;2023-10-08T13:15:55;101971.31;;;21.50;70.72
10712;BME280;5407;51.234;6.804;2023-10-08T13:18:25;101962.72;;;21.55;71.33
10712;BME280;5407;51.234;6.804;2023-10-08T13:20:52;101947.94;;;21.70;70.27
10712;BME280;5407;51.234;6.804;2023-10-08T13:23:20;101963.69;;;21.87;69.16
10712;BME280;5407;51.234;6.804;2023-10-08T13:25:49;101975.03;;;21.75;69.98